Time;durP1;ratioP1;P1;durP2;ratioP2;P2;SDS_P1;SDS_P2;PMS_P1;PMS_P2;Temp;Humidity;BMP_temperature;BMP_pressure;BME280_temperature;BME280_humidity;BME280_pressure;Samples;Min_cycle;Max_cycle;Signal;HPM_P1;HPM_P2
2023/04/04 00:00:20;;;;;;;19.60;12.00;;;;;;;9.89;100.00;95802.63;5089964;28;20189;-75
2023/04/04 00:02:48;;;;;;;20.17;11.83;;;;;;;9.90;100.00;95801.69;5087664;28;20191;-81
2023/04/04 00:05:15;;;;;;;17.33;11.33;;;;;;;9.81;100.00;95801.34;5088013;28;20216;-76
2023/04/04 00:07:46;;;;;;;15.50;10.20;;;;;;;9.76;100.00;95803.41;5086967;28;20295;-77
2023/04/04 00:10:13;;;;;;;20.57;11.63;;;;;;;9.86;100.00;95803.66;5087773;28;20212;-74
2023/04/04 00:12:41;;;;;;;22.03;12.40;;;;;;;9.81;100.00;95788.41;5087208;28;20205;-74
2023/04/04 00:15:10;;;;;;;23.83;13.20;;;;;;;10.00;100.00;95782.06;5068965;28;20220;-76
2023/04/04 00:17:37;;;;;;;21.27;12.53;;;;;;;10.09;100.00;95805.63;5087697;28;20632;-75
2023/04/04 00:20:04;;;;;;;19.53;13.00;;;;;;;10.05;100.00;95803.31;5086965;28;20280;-74
2023/04/04 00:22:31;;;;;;;17.03;11.63;;;;;;;10.14;100.00;95819.09;5087020;28;20660;-73
2023/04/04 00:24:58;;;;;;;20.73;11.30;;;;;;;10.01;100.00;95828.56;5086685;28;20272;-77
2023/04/04 00:27:25;;;;;;;18.77;10.33;;;;;;;10.07;100.00;95838.50;5069001;28;20194;-74
2023/04/04 00:29:52;;;;;;;19.97;11.07;;;;;;;9.99;100.00;95840.75;5087140;28;20192;-74
2023/04/04 00:32:19;;;;;;;16.90;10.47;;;;;;;9.94;100.00;95839.34;5087103;28;20581;-76
2023/04/04 00:34:56;;;;;;;20.77;12.13;;;;;;;9.82;100.00;95822.84;5087016;28;20552;-79
2023/04/04 00:37:23;;;;;;;17.40;10.80;;;;;;;9.88;100.00;95837.16;5086798;28;20184;-79
2023/04/04 00:39:50;;;;;;;20.80;12.50;;;;;;;9.88;100.00;95801.78;5087507;28;20210;-82
2023/04/04 00:42:17;;;;;;;20.97;11.40;;;;;;;9.95;100.00;95817.75;5086374;28;20238;-79
2023/04/04 00:44:44;;;;;;;23.23;12.33;;;;;;;10.00;100.00;95810.53;5069310;28;20231;-79
2023/04/04 00:47:12;;;;;;;21.37;12.27;;;;;;;9.92;100.00;95802.41;5086426;28;20198;-78
2023/04/04 00:49:39;;;;;;;18.73;11.47;;;;;;;10.05;100.00;95782.63;5086955;28;20188;-75
2023/04/04 00:52:06;;;;;;;21.40;12.27;;;;;;;10.06;100.00;95794.63;5086760;28;20364;-79
2023/04/04 00:54:34;;;;;;;20.03;11.73;;;;;;;9.97;100.00;95770.19;5068225;28;20184;-74
2023/04/04 00:57:05;;;;;;;18.27;10.83;;;;;;;10.12;100.00;95773.59;5069206;28;20233;-82
2023/04/04 00:59:33;;;;;;;14.07;9.67;;;;;;;10.00;100.00;95782.91;5086140;28;20737;-82
2023/04/04 01:02:00;;;;;;;10.47;6.73;;;;;;;10.08;100.00;95782.41;5087197;28;20246;-76
2023/04/04 01:04:30;;;;;;;3.20;2.90;;;;;;;10.04;98.19;95789.53;5086598;28;20215;-80
2023/04/04 01:06:59;;;;;;;1.93;1.77;;;;;;;9.94;96.75;95754.03;5068482;28;20193;-86
2023/04/04 01:09:26;;;;;;;3.60;2.20;;;;;;;10.14;96.00;95763.97;5086931;28;20573;-78
2023/04/04 01:11:56;;;;;;;2.50;1.90;;;;;;;10.22;95.43;95785.00;5067995;28;20192;-75
2023/04/04 01:14:24;;;;;;;3.03;2.00;;;;;;;10.26;94.59;95770.94;5068916;28;20254;-77
2023/04/04 01:16:52;;;;;;;2.13;1.70;;;;;;;10.33;94.56;95757.50;5068209;28;20826;-78
2023/04/04 01:19:33;;;;;;;2.47;1.80;;;;;;;10.32;94.82;95747.25;5068582;28;20211;-79
2023/04/04 01:22:08;;;;;;;1.63;1.53;;;;;;;10.20;94.20;95724.78;5068418;28;20224;-77
2023/04/04 01:24:37;;;;;;;2.53;2.00;;;;;;;10.24;94.76;95767.63;5068364;28;20214;-79
2023/04/04 01:27:05;;;;;;;2.20;1.90;;;;;;;10.21;95.13;95749.69;5068734;28;20250;-73
2023/04/04 01:29:37;;;;;;;2.30;1.97;;;;;;;10.16;96.31;95760.34;5067686;28;20199;-75
2023/04/04 01:32:44;;;;;;;2.30;2.07;;;;;;;10.21;95.66;95772.97;5068990;28;20187;-73
2023/04/04 01:35:24;;;;;;;2.00;1.73;;;;;;;10.17;96.27;95772.34;4991067;28;20694;-78
2023/04/04 01:38:06;;;;;;;1.90;1.70;;;;;;;10.09;97.10;95755.63;5084239;28;20195;-76
2023/04/04 01:40:36;;;;;;;2.17;1.77;;;;;;;9.92;98.42;95773.97;5072860;28;20206;-78
2023/04/04 01:43:04;;;;;;;1.93;1.67;;;;;;;9.98;98.64;95751.16;5071772;28;20234;-77
2023/04/04 01:45:32;;;;;;;1.50;1.17;;;;;;;9.94;98.21;95751.44;5072656;28;20215;-76
2023/04/04 01:48:03;;;;;;;3.00;1.30;;;;;;;9.83;100.00;95783.97;5071829;28;20202;-74
2023/04/04 01:50:30;;;;;;;1.40;1.20;;;;;;;9.86;99.96;95777.78;5090201;28;20220;-79
2023/04/04 01:52:57;;;;;;;1.43;1.30;;;;;;;9.75;100.00;95755.19;5071949;28;20189;-79
2023/04/04 01:55:24;;;;;;;2.63;1.23;;;;;;;9.83;100.00;95765.88;5054718;28;20291;-76
2023/04/04 01:57:51;;;;;;;1.30;1.20;;;;;;;9.61;100.00;95765.56;5071982;28;20192;-74
2023/04/04 02:00:18;;;;;;;2.30;1.20;;;;;;;9.74;100.00;95765.63;5071349;28;20196;-75
2023/04/04 02:02:45;;;;;;;1.20;1.10;;;;;;;9.65;100.00;95774.78;5090259;28;20619;-73
2023/04/04 02:05:12;;;;;;;2.70;1.70;;;;;;;9.49;100.00;95745.66;5090043;28;20279;-78
2023/04/04 02:07:40;;;;;;;1.50;1.20;;;;;;;9.71;100.00;95769.25;5072769;28;20620;-77
2023/04/04 02:10:19;;;;;;;1.63;1.43;;;;;;;9.69;100.00;95752.16;5071991;28;20275;-76
2023/04/04 02:12:46;;;;;;;2.13;1.50;;;;;;;9.80;100.00;95760.06;5089421;28;20188;-79
2023/04/04 02:15:13;;;;;;;1.53;1.40;;;;;;;9.83;100.00;95755.53;5055450;28;20200;-76
2023/04/04 02:17:46;;;;;;;1.27;1.10;;;;;;;9.90;100.00;95771.50;5070998;28;20184;-78
2023/04/04 02:20:13;;;;;;;2.13;1.60;;;;;;;9.90;100.00;95747.38;5071851;28;20184;-78
2023/04/04 02:22:41;;;;;;;0.97;0.97;;;;;;;9.94;98.94;95752.28;5071327;28;20232;-73
2023/04/04 02:25:08;;;;;;;1.53;1.30;;;;;;;10.08;97.18;95751.38;5089972;28;20972;-80
2023/04/04 02:27:35;;;;;;;1.20;1.03;;;;;;;10.10;96.59;95745.22;5090243;28;20189;-80
2023/04/04 02:30:02;;;;;;;1.50;1.40;;;;;;;9.97;95.17;95723.66;5071176;28;20218;-76
2023/04/04 02:32:29;;;;;;;1.50;1.20;;;;;;;10.12;94.17;95751.13;5072546;28;20185;-83
2023/04/04 02:34:56;;;;;;;1.50;1.40;;;;;;;10.16;94.79;95738.84;5089598;28;20235;-81
2023/04/04 02:37:23;;;;;;;2.40;1.27;;;;;;;10.09;94.94;95734.94;5071911;28;20369;-83
2023/04/04 02:39:52;;;;;;;1.67;1.57;;;;;;;10.07;95.29;95735.06;5070873;28;20173;-79
2023/04/04 02:42:20;;;;;;;1.83;1.60;;;;;;;10.14;95.22;95748.44;5073141;28;20200;-77
2023/04/04 02:44:47;;;;;;;2.03;1.40;;;;;;;9.97;95.14;95721.06;5073266;28;20222;-83
2023/04/04 02:47:16;;;;;;;2.10;1.50;;;;;;;10.01;95.37;95739.78;5071693;28;20616;-80
2023/04/04 02:49:44;;;;;;;1.80;1.60;;;;;;;10.04;95.98;95734.41;5091158;28;20192;-79
2023/04/04 02:52:13;;;;;;;1.63;1.53;;;;;;;10.13;95.77;95718.31;5054076;28;20554;-79
2023/04/04 02:54:43;;;;;;;1.70;1.60;;;;;;;10.18;95.36;95726.63;5071500;28;20212;-82
2023/04/04 02:57:16;;;;;;;2.33;1.33;;;;;;;10.02;95.40;95715.56;5070591;28;20239;-78
2023/04/04 02:59:43;;;;;;;1.63;1.30;;;;;;;10.08;95.01;95717.75;5070978;28;20193;-79
2023/04/04 03:02:10;;;;;;;1.27;1.17;;;;;;;10.16;94.43;95715.56;5070910;28;20246;-82
2023/04/04 03:04:37;;;;;;;2.07;1.20;;;;;;;10.20;94.63;95727.34;5070802;28;20220;-80
2023/04/04 03:07:04;;;;;;;1.70;1.60;;;;;;;10.17;94.82;95710.28;5089611;28;20242;-81
2023/04/04 03:09:31;;;;;;;3.40;1.60;;;;;;;10.28;93.40;95699.22;5088426;28;20185;-83
2023/04/04 03:11:59;;;;;;;3.00;1.90;;;;;;;10.23;92.61;95701.28;5071831;28;20272;-82
2023/04/04 03:14:28;;;;;;;2.20;1.60;;;;;;;10.41;92.48;95716.41;5088751;28;20176;-80
2023/04/04 03:16:56;;;;;;;3.87;1.57;;;;;;;10.47;92.05;95707.41;5060205;28;20271;-81
2023/04/04 03:19:23;;;;;;;1.60;1.50;;;;;;;10.27;91.27;95700.13;5068317;28;20209;-76
2023/04/04 03:21:52;;;;;;;1.40;1.30;;;;;;;10.39;90.82;95704.50;5049686;28;20261;-80
2023/04/04 03:24:19;;;;;;;2.03;0.97;;;;;;;10.38;91.74;95710.63;5068710;28;20189;-79
2023/04/04 03:26:46;;;;;;;1.77;1.43;;;;;;;10.44;90.77;95712.81;5067754;28;20194;-82
2023/04/04 03:29:13;;;;;;;1.93;1.60;;;;;;;10.58;91.05;95703.19;5078655;28;20801;-79
2023/04/04 03:31:40;;;;;;;1.60;1.50;;;;;;;10.59;91.17;95716.97;5073925;28;20195;-81
2023/04/04 03:34:08;;;;;;;1.50;1.40;;;;;;;10.53;90.33;95707.84;5082321;28;20209;-78
2023/04/04 03:36:35;;;;;;;1.83;1.20;;;;;;;10.19;90.19;95672.19;5063160;28;20232;-73
2023/04/04 03:39:02;;;;;;;1.43;1.30;;;;;;;10.46;90.62;95713.53;5067420;28;20284;-75
2023/04/04 03:41:29;;;;;;;1.60;1.17;;;;;;;10.46;91.10;95698.84;5068201;28;20194;-76
2023/04/04 03:43:56;;;;;;;1.37;1.27;;;;;;;10.47;89.54;95700.47;5067085;28;20308;-80
2023/04/04 03:46:24;;;;;;;1.40;1.30;;;;;;;10.60;89.74;95710.84;5068263;28;20182;-80
2023/04/04 03:48:51;;;;;;;1.50;1.30;;;;;;;10.66;89.54;95707.84;5056224;28;20196;-81
2023/04/04 03:51:26;;;;;;;2.27;1.80;;;;;;;10.71;89.66;95705.78;5069790;28;20189;-77
2023/04/04 03:53:53;;;;;;;2.40;1.63;;;;;;;10.61;89.76;95696.97;5069465;28;20651;-75
2023/04/04 03:56:20;;;;;;;1.80;1.60;;;;;;;10.77;89.59;95700.19;5086446;28;20220;-80
2023/04/04 03:58:47;;;;;;;1.70;1.60;;;;;;;10.84;89.07;95701.41;5088155;28;20318;-74
2023/04/04 04:01:18;;;;;;;1.50;1.10;;;;;;;10.71;88.43;95705.78;5068674;28;20204;-81
2023/04/04 04:03:46;;;;;;;1.93;1.60;;;;;;;10.67;88.44;95709.50;5069916;28;20214;-87
2023/04/04 04:06:13;;;;;;;1.97;1.77;;;;;;;10.79;89.48;95698.31;5087432;28;20188;-87
2023/04/04 04:08:40;;;;;;;2.57;2.27;;;;;;;10.87;88.54;95700.38;5088107;28;20226;-84
2023/04/04 04:11:07;;;;;;;2.73;1.97;;;;;;;10.86;88.87;95689.19;5087623;28;20935;-83
2023/04/04 04:13:36;;;;;;;3.90;2.67;;;;;;;10.86;89.70;95699.53;5087739;28;20184;-81
2023/04/04 04:16:04;;;;;;;3.87;2.20;;;;;;;10.75;88.31;95699.47;5085626;28;20300;-84
2023/04/04 04:18:32;;;;;;;3.77;2.93;;;;;;;10.87;88.71;95711.56;5041001;28;20734;-81
2023/04/04 04:21:01;;;;;;;5.03;3.70;;;;;;;10.92;89.34;95704.31;5049329;28;20233;-75
2023/04/04 04:23:30;;;;;;;2.67;2.00;;;;;;;10.90;89.04;95703.59;5065391;28;20601;-82
2023/04/04 04:26:00;;;;;;;2.03;1.83;;;;;;;10.79;90.23;95693.16;5057369;28;20313;-82
2023/04/04 04:28:27;;;;;;;1.63;1.53;;;;;;;10.71;90.37;95704.94;5068652;28;20543;-88
2023/04/04 04:31:05;;;;;;;1.70;1.60;;;;;;;10.70;90.54;95693.75;5068807;28;20694;-84
2023/04/04 04:33:34;;;;;;;2.33;2.13;;;;;;;10.73;90.84;95690.13;5069535;28;20194;-80
2023/04/04 04:36:05;;;;;;;3.30;2.60;;;;;;;10.75;91.00;95686.53;5069219;28;20180;-81
2023/04/04 04:38:46;;;;;;;3.60;2.87;;;;;;;10.68;90.30;95687.84;5070457;28;20713;-80
2023/04/04 04:41:14;;;;;;;4.00;2.93;;;;;;;10.83;90.59;95702.34;5068816;28;20265;-82
2023/04/04 04:43:45;;;;;;;3.17;1.80;;;;;;;10.74;90.69;95700.38;5068811;28;20189;-81
2023/04/04 04:46:13;;;;;;;3.97;2.50;;;;;;;10.68;90.62;95685.25;5068462;28;20599;-80
2023/04/04 04:48:40;;;;;;;2.60;1.90;;;;;;;10.78;90.73;95694.06;5069361;28;20189;-82
2023/04/04 04:51:09;;;;;;;3.53;2.27;;;;;;;10.74;90.84;95689.22;5070226;28;20202;-84
2023/04/04 04:53:41;;;;;;;4.43;2.90;;;;;;;10.86;90.00;95698.75;5073841;28;20185;-83
2023/04/04 04:56:09;;;;;;;3.23;1.90;;;;;;;10.87;90.65;95706.41;5068826;28;20238;-84
2023/04/04 04:58:40;;;;;;;4.67;2.70;;;;;;;10.90;90.86;95713.94;5069227;28;20263;-84
2023/04/04 05:01:09;;;;;;;5.33;4.20;;;;;;;10.79;90.99;95703.50;5069976;28;20185;-80
2023/04/04 05:03:39;;;;;;;3.30;2.77;;;;;;;10.72;92.19;95707.44;5069366;28;20190;-81
2023/04/04 05:06:09;;;;;;;2.47;1.90;;;;;;;10.77;92.21;95712.31;5068627;28;20227;-81
2023/04/04 05:08:37;;;;;;;4.37;2.10;;;;;;;10.65;92.58;95709.59;5087215;28;20185;-80
2023/04/04 05:11:30;;;;;;;2.63;2.30;;;;;;;10.61;92.91;95708.16;5082388;28;20310;-82
2023/04/04 05:13:58;;;;;;;3.97;2.40;;;;;;;10.51;92.34;95677.78;5068761;28;20250;-81
2023/04/04 05:16:27;;;;;;;6.53;3.00;;;;;;;10.78;92.63;95714.78;5086672;28;20216;-81
2023/04/04 05:18:56;;;;;;;3.10;2.47;;;;;;;10.74;92.31;95697.00;5068287;28;20562;-83
2023/04/04 05:21:23;;;;;;;7.93;3.47;;;;;;;10.64;92.99;95704.53;5051832;28;20257;-82
2023/04/04 05:23:52;;;;;;;4.87;3.73;;;;;;;10.76;92.63;95693.34;5067689;28;20831;-82
2023/04/04 05:26:21;;;;;;;6.43;4.43;;;;;;;10.71;91.80;95705.78;5086387;28;20280;-79
2023/04/04 05:28:51;;;;;;;8.27;5.57;;;;;;;10.60;92.26;95695.31;5067995;28;20201;-78
2023/04/04 05:31:20;;;;;;;7.03;5.07;;;;;;;10.82;92.15;95703.28;5068135;28;20215;-77
2023/04/04 05:33:49;;;;;;;7.00;4.63;;;;;;;10.46;92.47;95669.53;5068246;28;20651;-82
2023/04/04 05:36:30;;;;;;;5.53;4.00;;;;;;;10.78;92.73;95701.84;5060480;28;20251;-74
2023/04/04 05:39:03;;;;;;;4.17;3.60;;;;;;;10.67;93.54;95706.94;5068678;28;20187;-78
2023/04/04 05:41:33;;;;;;;5.50;4.37;;;;;;;10.56;94.06;95691.28;5068751;28;20210;-81
2023/04/04 05:44:07;;;;;;;7.73;5.10;;;;;;;10.56;94.29;95701.63;5068588;28;20189;-76
2023/04/04 05:46:35;;;;;;;8.07;6.17;;;;;;;10.64;94.04;95705.38;5067652;28;20222;-81
2023/04/04 05:49:03;;;;;;;9.20;6.17;;;;;;;10.62;94.14;95696.03;5067530;28;20200;-76
2023/04/04 05:51:32;;;;;;;8.60;6.40;;;;;;;10.57;94.39;95708.47;5068239;28;20280;-77
2023/04/04 05:54:09;;;;;;;9.53;7.67;;;;;;;10.63;94.55;95705.47;5067246;28;20237;-82
2023/04/04 05:56:37;;;;;;;12.20;8.33;;;;;;;10.53;95.37;95712.19;5068204;28;20213;-79
2023/04/04 05:59:09;;;;;;;12.37;7.87;;;;;;;10.64;94.78;95718.31;5067803;28;20189;-75
2023/04/04 06:01:48;;;;;;;11.77;7.30;;;;;;;10.46;95.74;95700.59;5067640;28;20220;-80
2023/04/04 06:04:16;;;;;;;11.50;7.60;;;;;;;10.48;96.14;95703.91;5067721;28;20568;-79
2023/04/04 06:06:45;;;;;;;10.37;7.40;;;;;;;10.46;96.34;95708.34;5085342;28;20199;-74
2023/04/04 06:09:12;;;;;;;8.33;6.70;;;;;;;10.36;96.21;95700.38;5085730;28;20239;-77
2023/04/04 06:11:39;;;;;;;8.53;7.03;;;;;;;10.46;96.01;95714.38;5084988;28;20189;-80
2023/04/04 06:14:09;;;;;;;9.13;7.10;;;;;;;10.41;95.91;95698.31;5067768;28;20191;-79
2023/04/04 06:16:39;;;;;;;10.80;7.57;;;;;;;10.58;96.15;95710.94;5067553;28;20225;-80
2023/04/04 06:19:07;;;;;;;11.90;8.40;;;;;;;10.62;96.59;95715.00;5067810;28;20204;-75
2023/04/04 06:21:34;;;;;;;12.23;8.90;;;;;;;10.64;96.60;95712.28;5054847;28;20224;-80
2023/04/04 06:24:01;;;;;;;14.87;9.93;;;;;;;10.69;96.45;95712.00;5054187;28;20603;-76
2023/04/04 06:26:29;;;;;;;10.93;8.37;;;;;;;10.66;96.68;95705.25;5071818;28;20211;-83
2023/04/04 06:28:58;;;;;;;14.30;9.70;;;;;;;10.78;96.83;95706.22;5070679;28;20239;-79
2023/04/04 06:31:30;;;;;;;9.43;7.33;;;;;;;10.75;96.63;95711.56;5071147;28;20185;-76
2023/04/04 06:34:03;;;;;;;10.23;8.10;;;;;;;10.79;96.08;95711.28;5070974;28;20238;-78
2023/04/04 06:36:35;;;;;;;18.40;11.00;;;;;;;10.70;96.43;95714.47;5070603;28;20721;-77
2023/04/04 06:39:03;;;;;;;16.07;11.90;;;;;;;10.60;97.07;95713.44;5063019;28;20200;-82
2023/04/04 06:41:46;;;;;;;18.80;11.73;;;;;;;10.58;96.79;95707.53;5049018;28;21020;-82
2023/04/04 06:44:29;;;;;;;19.53;12.20;;;;;;;10.65;96.87;95711.38;5082912;28;20248;-78
2023/04/04 06:47:10;;;;;;;15.63;11.57;;;;;;;10.47;96.94;95703.06;5049510;28;20212;-74
2023/04/04 06:50:33;;;;;;;15.50;11.67;;;;;;;10.56;96.46;95714.56;5067153;28;20188;-78
2023/04/04 06:54:00;;;;;;;14.50;11.13;;;;;;;10.64;97.13;95701.94;5068159;28;20289;-74
2023/04/04 06:56:44;;;;;;;16.37;11.23;;;;;;;10.81;95.92;95717.19;5050987;28;20229;-76
2023/04/04 06:59:11;;;;;;;15.23;10.77;;;;;;;10.94;95.69;95709.41;5049946;28;20179;-79
2023/04/04 07:01:38;;;;;;;15.27;11.20;;;;;;;10.94;95.42;95707.63;5050682;28;20199;-77
2023/04/04 07:04:05;;;;;;;15.03;11.50;;;;;;;10.92;95.10;95706.91;5050755;28;20270;-76
2023/04/04 07:06:32;;;;;;;17.53;11.00;;;;;;;11.04;95.55;95719.03;5069816;28;20194;-75
2023/04/04 07:08:59;;;;;;;17.27;12.60;;;;;;;11.01;94.87;95692.50;5068079;28;20237;-73
2023/04/04 07:11:28;;;;;;;15.77;12.50;;;;;;;11.10;95.03;95713.44;5068055;28;20194;-77
2023/04/04 07:13:55;;;;;;;14.97;12.13;;;;;;;11.10;94.88;95716.03;5068703;28;20660;-75
2023/04/04 07:16:22;;;;;;;16.97;10.77;;;;;;;11.15;94.75;95731.22;5067391;28;20190;-80
2023/04/04 07:18:49;;;;;;;17.53;11.67;;;;;;;11.13;94.90;95727.91;5068330;28;20659;-76
2023/04/04 07:21:16;;;;;;;13.90;9.83;;;;;;;11.04;94.64;95729.41;5067653;28;20229;-81
2023/04/04 07:23:43;;;;;;;13.43;8.97;;;;;;;11.10;93.95;95716.03;5077693;28;20307;-82
2023/04/04 07:26:10;;;;;;;15.90;10.57;;;;;;;11.13;94.18;95720.97;5053325;28;20692;-77
2023/04/04 07:28:37;;;;;;;14.47;10.40;;;;;;;11.06;94.43;95721.50;5091880;28;20189;-79
2023/04/04 07:31:04;;;;;;;12.80;8.37;;;;;;;11.12;94.17;95737.47;5091668;28;20202;-83
2023/04/04 07:33:31;;;;;;;8.67;7.10;;;;;;;11.01;93.95;95728.75;5071036;28;20209;-81
2023/04/04 07:36:00;;;;;;;11.37;7.30;;;;;;;11.00;94.08;95720.19;5070393;28;20246;-79
2023/04/04 07:38:27;;;;;;;10.63;7.57;;;;;;;10.83;94.10;95704.94;5087378;28;20224;-82
2023/04/04 07:40:54;;;;;;;14.27;10.07;;;;;;;11.07;94.04;95739.53;5069136;28;20201;-82
2023/04/04 07:43:21;;;;;;;15.10;10.53;;;;;;;11.07;93.72;95721.41;5052625;28;20533;-80
2023/04/04 07:45:48;;;;;;;14.70;11.87;;;;;;;11.05;94.04;95735.38;5087535;28;20185;-74
2023/04/04 07:48:16;;;;;;;13.77;11.33;;;;;;;11.19;94.06;95730.91;5087607;28;20658;-84
2023/04/04 07:50:43;;;;;;;13.13;9.77;;;;;;;11.18;94.27;95742.22;5087332;28;20287;-77
2023/04/04 07:53:10;;;;;;;16.13;10.37;;;;;;;11.31;94.16;95737.84;5069673;28;20247;-79
2023/04/04 07:55:37;;;;;;;14.77;10.33;;;;;;;11.17;94.17;95719.81;5086742;28;20210;-83
2023/04/04 07:58:04;;;;;;;13.70;10.23;;;;;;;11.25;94.92;95734.88;5087788;28;20244;-82
2023/04/04 08:00:31;;;;;;;17.93;13.30;;;;;;;11.25;95.15;95732.28;5087228;28;20190;-79
2023/04/04 08:02:59;;;;;;;13.23;9.40;;;;;;;10.96;96.32;95721.31;5087587;28;20180;-77
2023/04/04 08:05:27;;;;;;;13.77;8.70;;;;;;;10.96;95.83;95729.09;5087565;28;20562;-79
2023/04/04 08:07:54;;;;;;;9.73;7.53;;;;;;;10.95;95.45;95737.78;5068177;28;20571;-84
2023/04/04 08:10:21;;;;;;;11.70;8.67;;;;;;;11.04;95.46;95731.97;5087098;28;20292;-80
2023/04/04 08:12:48;;;;;;;12.73;8.60;;;;;;;11.04;95.24;95729.41;5086547;28;20185;-82
2023/04/04 08:15:15;;;;;;;23.70;17.70;;;;;;;11.03;95.62;95727.72;5087191;28;20221;-81
2023/04/04 08:17:42;;;;;;;36.63;27.93;;;;;;;10.84;96.27;95729.91;5086563;28;20274;-81
2023/04/04 08:20:10;;;;;;;37.20;26.90;;;;;;;10.94;96.59;95720.56;5086863;28;20192;-80
2023/04/04 08:22:39;;;;;;;24.20;18.50;;;;;;;10.96;96.43;95725.66;5068293;28;20244;-83
2023/04/04 08:25:07;;;;;;;19.93;14.97;;;;;;;11.18;95.93;95726.69;5086832;28;20209;-83
2023/04/04 08:27:34;;;;;;;17.97;11.93;;;;;;;11.19;95.39;95727.50;5069299;28;20188;-81
2023/04/04 08:30:03;;;;;;;14.27;10.13;;;;;;;10.96;95.41;95694.59;5068004;28;20198;-82
2023/04/04 08:32:30;;;;;;;15.10;9.77;;;;;;;11.27;95.39;95727.81;5086801;28;20203;-79
2023/04/04 08:34:58;;;;;;;10.60;7.90;;;;;;;11.29;95.21;95728.53;5086101;28;20714;-84
2023/04/04 08:37:25;;;;;;;11.03;8.73;;;;;;;11.27;95.00;95725.22;5086135;28;20271;-77
2023/04/04 08:39:52;;;;;;;12.03;7.83;;;;;;;11.45;94.31;95731.72;5086418;28;20191;-82
2023/04/04 08:42:20;;;;;;;10.70;7.90;;;;;;;11.40;94.07;95732.03;5085527;28;20276;-79
2023/04/04 08:44:51;;;;;;;9.53;6.73;;;;;;;11.16;93.63;95687.09;5086501;28;20267;-82
2023/04/04 08:47:20;;;;;;;11.67;8.87;;;;;;;11.48;93.95;95742.69;5086105;28;20192;-82
2023/04/04 08:49:48;;;;;;;14.03;9.67;;;;;;;11.50;94.58;95741.75;5086134;28;20186;-79
2023/04/04 08:52:19;;;;;;;11.97;8.57;;;;;;;11.42;93.69;95737.09;5067386;28;20193;-81
2023/04/04 08:54:47;;;;;;;14.57;8.80;;;;;;;11.33;93.75;95738.56;5086019;28;20200;-83
2023/04/04 08:57:14;;;;;;;10.50;7.83;;;;;;;11.28;93.64;95755.38;5086472;28;20688;-82
2023/04/04 08:59:41;;;;;;;11.53;8.70;;;;;;;11.25;94.22;95753.00;5086440;28;20212;-81
2023/04/04 09:02:08;;;;;;;16.97;10.67;;;;;;;11.19;95.67;95750.84;5087185;28;20212;-82
2023/04/04 09:04:38;;;;;;;11.37;8.40;;;;;;;11.09;95.30;95748.03;5085724;28;20582;-78
2023/04/04 09:07:05;;;;;;;13.77;8.80;;;;;;;11.26;95.96;95754.66;5086648;28;20215;-80
2023/04/04 09:09:33;;;;;;;14.20;8.77;;;;;;;11.17;96.02;95745.72;5067913;28;20205;-81
2023/04/04 09:12:02;;;;;;;13.77;10.40;;;;;;;11.19;96.01;95756.81;5086158;28;20193;-81
2023/04/04 09:14:29;;;;;;;11.17;6.83;;;;;;;11.10;95.17;95749.69;5067855;28;20697;-82
2023/04/04 09:16:57;;;;;;;8.73;6.20;;;;;;;10.87;94.90;95757.34;5067273;28;20193;-80
2023/04/04 09:19:24;;;;;;;8.83;7.37;;;;;;;10.96;94.83;95760.19;5067895;28;20318;-84
2023/04/04 09:21:52;;;;;;;7.50;6.53;;;;;;;10.99;95.66;95772.06;5085203;28;20269;-78
2023/04/04 09:24:19;;;;;;;9.23;5.97;;;;;;;10.69;94.83;95736.13;5086409;28;20189;-82
2023/04/04 09:26:52;;;;;;;7.60;6.27;;;;;;;10.90;95.66;95759.75;5085917;28;20184;-82
2023/04/04 09:29:20;;;;;;;24.00;18.63;;;;;;;10.93;96.37;95775.06;5067297;28;20239;-84
2023/04/04 09:31:48;;;;;;;31.80;22.73;;;;;;;10.93;96.92;95762.97;5085824;28;20190;-74
2023/04/04 09:34:17;;;;;;;15.77;10.27;;;;;;;10.99;96.26;95766.88;5085790;28;20185;-81
2023/04/04 09:36:45;;;;;;;9.47;7.13;;;;;;;11.02;95.99;95774.47;5086168;28;20323;-81
2023/04/04 09:39:15;;;;;;;10.10;7.63;;;;;;;11.00;96.35;95769.41;5088188;28;20269;-77
2023/04/04 09:41:44;;;;;;;9.20;5.83;;;;;;;10.90;96.79;95751.97;5076256;28;20202;-80
2023/04/04 09:44:12;;;;;;;10.73;7.03;;;;;;;10.73;96.71;95749.69;5086320;28;20187;-81
2023/04/04 09:46:40;;;;;;;10.30;7.97;;;;;;;11.04;97.56;95773.44;5086836;28;20199;-79
2023/04/04 09:49:18;;;;;;;14.53;9.93;;;;;;;11.04;98.13;95775.19;5086903;28;20197;-83
2023/04/04 09:51:53;;;;;;;10.30;7.30;;;;;;;10.95;97.27;95778.38;5068424;28;20185;-77
2023/04/04 09:54:21;;;;;;;10.53;6.70;;;;;;;10.81;98.35;95784.50;5069408;28;20704;-81
2023/04/04 09:56:56;;;;;;;7.20;5.83;;;;;;;10.52;99.31;95751.94;5089591;28;20192;-80
2023/04/04 09:59:23;;;;;;;4.07;3.37;;;;;;;10.64;99.34;95785.63;5089881;28;20252;-77
2023/04/04 10:01:53;;;;;;;7.70;5.20;;;;;;;10.61;100.00;95793.56;5091924;28;20181;-79
2023/04/04 10:04:23;;;;;;;8.10;6.30;;;;;;;10.74;100.00;95792.78;5102156;28;20180;-85
2023/04/04 10:06:52;;;;;;;6.67;5.40;;;;;;;10.84;99.84;95793.84;5090086;28;20362;-83
2023/04/04 10:09:20;;;;;;;9.13;7.17;;;;;;;10.59;100.00;95779.09;5071342;28;20267;-78
2023/04/04 10:11:48;;;;;;;11.40;8.17;;;;;;;10.85;100.00;95782.53;5089761;28;20185;-82
2023/04/04 10:14:15;;;;;;;10.77;8.40;;;;;;;10.60;100.00;95785.91;5089271;28;20299;-81
2023/04/04 10:16:45;;;;;;;12.30;9.83;;;;;;;10.78;100.00;95783.88;5089680;28;20189;-76
2023/04/04 10:19:16;;;;;;;12.57;9.53;;;;;;;10.74;100.00;95782.44;5088941;28;20683;-77
2023/04/04 10:21:44;;;;;;;15.17;10.47;;;;;;;10.56;100.00;95768.94;5088939;28;20281;-83
2023/04/04 10:24:13;;;;;;;12.13;9.40;;;;;;;10.78;100.00;95776.13;5090404;28;20182;-81
2023/04/04 10:26:40;;;;;;;13.30;8.73;;;;;;;10.69;100.00;95785.31;5075301;28;20200;-80
2023/04/04 10:29:07;;;;;;;12.37;8.87;;;;;;;10.79;100.00;95776.00;5093737;28;20196;-81
2023/04/04 10:31:39;;;;;;;9.80;8.60;;;;;;;10.86;98.73;95773.84;5090514;28;20254;-77
2023/04/04 10:34:42;;;;;;;10.70;8.67;;;;;;;11.15;97.94;95783.88;5090081;28;20271;-73
2023/04/04 10:37:19;;;;;;;13.17;9.90;;;;;;;11.16;97.31;95772.59;5071173;28;20198;-74
2023/04/04 10:39:54;;;;;;;12.70;9.63;;;;;;;11.21;95.84;95778.28;5088615;28;20191;-76
2023/04/04 10:42:22;;;;;;;15.47;10.80;;;;;;;11.12;96.05;95770.31;5089331;28;20184;-76
2023/04/04 10:44:49;;;;;;;14.27;10.13;;;;;;;11.02;95.55;95777.06;5088672;28;20199;-73
2023/04/04 10:47:22;;;;;;;10.27;7.73;;;;;;;10.85;95.01;95770.41;5089059;28;20757;-79
2023/04/04 10:49:50;;;;;;;12.73;10.33;;;;;;;10.98;94.98;95768.66;5088860;28;20185;-81
2023/04/04 10:52:19;;;;;;;11.93;9.30;;;;;;;10.97;93.73;95753.22;5088366;28;20185;-76
2023/04/04 10:54:49;;;;;;;14.43;8.70;;;;;;;11.23;93.75;95767.81;5088938;28;20650;-74
2023/04/04 10:57:17;;;;;;;14.67;11.03;;;;;;;11.54;93.77;95746.59;5070094;28;20184;-79
2023/04/04 11:00:09;;;;;;;11.30;9.30;;;;;;;11.85;91.75;95771.25;5088980;28;20221;-80
2023/04/04 11:02:51;;;;;;;10.47;7.00;;;;;;;12.11;89.54;95765.88;5070619;28;20195;-80
2023/04/04 11:05:25;;;;;;;7.60;6.80;;;;;;;12.05;87.99;95755.94;5087640;28;20189;-82
2023/04/04 11:08:01;;;;;;;7.90;6.60;;;;;;;12.25;86.76;95762.25;5054049;28;20201;-81
2023/04/04 11:10:36;;;;;;;7.27;5.40;;;;;;;11.97;85.74;95768.59;5087860;28;20550;-77
2023/04/04 11:13:22;;;;;;;8.20;7.23;;;;;;;12.04;85.86;95769.00;5052719;28;20699;-82
2023/04/04 11:15:56;;;;;;;8.87;7.63;;;;;;;12.07;87.03;95771.38;5088141;28;20196;-86
2023/04/04 11:18:42;;;;;;;8.63;6.93;;;;;;;11.89;87.57;95767.50;5088288;28;20248;-83
2023/04/04 11:21:26;;;;;;;11.13;8.93;;;;;;;12.07;87.29;95750.63;5088597;28;20272;-82
2023/04/04 11:23:53;;;;;;;13.90;9.00;;;;;;;12.13;86.09;95758.78;5088956;28;20255;-80
2023/04/04 11:26:29;;;;;;;12.83;9.50;;;;;;;12.36;86.49;95764.91;5088345;28;20201;-83
2023/04/04 11:29:00;;;;;;;14.70;9.33;;;;;;;12.41;86.16;95755.00;5088168;28;20191;-80
2023/04/04 11:31:33;;;;;;;11.47;8.70;;;;;;;12.46;84.83;95749.47;5088260;28;20280;-77
2023/04/04 11:34:07;;;;;;;13.80;8.43;;;;;;;12.47;84.00;95761.53;5070185;28;20660;-81
2023/04/04 11:36:34;;;;;;;11.27;8.33;;;;;;;12.75;83.41;95751.56;5087758;28;20192;-78
2023/04/04 11:39:04;;;;;;;12.03;8.23;;;;;;;12.94;82.85;95746.63;5088062;28;20222;-80